Cubuk, Turkey
Current Conditions -  °F | °C
As of 7:20 PM on Sunday 21 Dec 2014 (Local Time) from LTAC Reporting Station
Broken Clouds Broken Clouds  
Wind Chill: 36°   Ceiling: 8000
Heat Index: 36°   Visibility: 6mi
Dew Point: 32°   Wind: 3mph
Humidity: 87%   Direction: 10°N
Pressure: 30"   Gusts: NA
Location:  40.98°N, 32.08°E
Report Text: LTAC 211620Z 01003KT 9999 SCT017 SCT030 BKN080 02/00 Q1016 NOSIG
Loading
Personal Weather Stations






























Interactive Weather Map New forecast layout! Learn more

10-Day Weather Forecast

Advertisements
Track Severe Weather on mobile